createdAt,value
2022-09-28T00:01:29.764Z,12.50
2022-09-28T00:03:59.677Z,12.50
2022-09-28T00:06:30.630Z,12.48
2022-09-28T00:09:02.476Z,12.40
2022-09-28T00:11:33.393Z,12.40
2022-09-28T00:14:03.893Z,12.40
2022-09-28T00:16:36.942Z,12.38
2022-09-28T00:19:08.334Z,12.30
2022-09-28T00:21:42.895Z,12.30
2022-09-28T00:24:25.223Z,12.30
2022-09-28T00:27:01.588Z,12.20
2022-09-28T00:29:36.396Z,12.20
2022-09-28T00:32:13.203Z,12.12
2022-09-28T00:34:49.266Z,12.10
2022-09-28T00:37:19.598Z,12.10
2022-09-28T00:39:49.045Z,12.00
2022-09-28T00:42:24.531Z,12.00
2022-09-28T00:45:00.378Z,12.00
2022-09-28T00:47:49.971Z,11.90
2022-09-28T00:50:27.740Z,11.84
2022-09-28T00:53:27.649Z,11.80
2022-09-28T00:56:01.313Z,11.78
2022-09-28T00:58:36.175Z,11.70
2022-09-28T01:01:07.118Z,11.70
2022-09-28T01:03:40.348Z,11.66
2022-09-28T01:06:09.704Z,11.62
2022-09-28T01:08:45.420Z,11.60
2022-09-28T01:11:14.563Z,11.60
2022-09-28T01:13:45.252Z,11.58
2022-09-28T01:16:35.197Z,11.54
2022-09-28T01:20:09.793Z,11.60
2022-09-28T01:22:54.602Z,11.50
2022-09-28T01:25:32.689Z,11.50
2022-09-28T01:28:09.240Z,11.50
2022-09-28T01:31:15.126Z,11.50
2022-09-28T01:33:50.553Z,11.58
2022-09-28T01:36:39.615Z,11.50
2022-09-28T01:39:15.619Z,11.50
2022-09-28T01:41:49.436Z,11.50
2022-09-28T01:44:23.086Z,11.52
2022-09-28T01:46:54.903Z,11.50
2022-09-28T01:49:32.181Z,11.50
2022-09-28T01:52:32.528Z,11.60
2022-09-28T01:55:45.342Z,11.60
2022-09-28T01:58:46.491Z,11.60
2022-09-28T02:01:27.389Z,11.60
2022-09-28T02:04:15.546Z,11.60
2022-09-28T02:07:18.908Z,11.60
2022-09-28T02:09:56.160Z,11.70
2022-09-28T02:12:51.445Z,11.66
2022-09-28T02:15:27.724Z,11.60
2022-09-28T02:17:58.231Z,11.60
2022-09-28T02:20:34.438Z,11.60
2022-09-28T02:23:07.161Z,11.60
2022-09-28T02:25:51.223Z,11.70
2022-09-28T02:28:23.850Z,11.70
2022-09-28T02:30:53.562Z,11.70
2022-09-28T02:33:48.859Z,11.80
2022-09-28T02:36:19.385Z,11.80
2022-09-28T02:38:50.429Z,11.80
2022-09-28T02:41:38.428Z,11.80
2022-09-28T02:44:41.473Z,11.80
2022-09-28T02:47:45.386Z,11.80
2022-09-28T02:50:42.543Z,11.80
2022-09-28T02:53:55.295Z,11.82
2022-09-28T02:56:58.228Z,11.82
2022-09-28T02:59:50.809Z,11.90
2022-09-28T03:02:50.377Z,11.90
2022-09-28T03:05:31.743Z,11.90
2022-09-28T03:08:23.760Z,11.90
2022-09-28T03:11:15.633Z,11.90
2022-09-28T03:13:45.657Z,11.90
2022-09-28T03:16:18.690Z,11.98
2022-09-28T03:18:48.569Z,12.00
2022-09-28T03:21:16.959Z,12.00
2022-09-28T03:23:52.260Z,12.00
2022-09-28T03:26:20.721Z,12.00
2022-09-28T03:28:49.751Z,12.00
2022-09-28T03:31:24.714Z,12.00
2022-09-28T03:33:56.563Z,12.00
2022-09-28T03:36:25.725Z,12.00
2022-09-28T03:38:56.233Z,12.00
2022-09-28T03:41:28.166Z,12.00
2022-09-28T03:43:57.905Z,12.00
2022-09-28T03:46:27.481Z,12.00
2022-09-28T03:48:59.837Z,12.00
2022-09-28T03:51:30.891Z,12.00
2022-09-28T03:53:59.450Z,12.00
2022-09-28T03:56:27.387Z,12.00
2022-09-28T03:58:55.847Z,11.90
2022-09-28T04:01:23.915Z,11.90
2022-09-28T04:03:58.675Z,11.90
2022-09-28T04:06:28.376Z,11.80
2022-09-28T04:08:57.475Z,11.70
2022-09-28T04:11:26.980Z,11.68
2022-09-28T04:13:59.903Z,11.60
2022-09-28T04:16:32.750Z,11.52
2022-09-28T04:19:10.675Z,11.50
2022-09-28T04:21:58.432Z,11.50
2022-09-28T04:24:26.859Z,11.50
2022-09-28T04:27:15.536Z,11.40
2022-09-28T04:29:44.070Z,11.40
2022-09-28T04:32:15.364Z,11.40
2022-09-28T04:34:44.503Z,11.30
2022-09-28T04:37:15.247Z,11.38
2022-09-28T04:39:48.212Z,11.30
2022-09-28T04:42:18.885Z,11.30
2022-09-28T04:44:47.947Z,11.30
2022-09-28T04:47:20.347Z,11.30
2022-09-28T04:50:01.012Z,11.20
2022-09-28T04:52:40.688Z,11.20
2022-09-28T04:55:13.036Z,11.20
2022-09-28T04:57:44.123Z,11.20
2022-09-28T05:00:13.743Z,11.20
2022-09-28T05:02:51.549Z,11.20
2022-09-28T05:05:44.722Z,11.20
2022-09-28T05:08:35.406Z,11.20
2022-09-28T05:11:07.800Z,11.20
2022-09-28T05:13:45.618Z,11.10
2022-09-28T05:16:17.626Z,11.10
2022-09-28T05:19:10.933Z,11.10
2022-09-28T05:21:39.541Z,11.10
2022-09-28T05:24:07.740Z,11.10
2022-09-28T05:26:40.136Z,11.00
2022-09-28T05:29:10.957Z,11.10
2022-09-28T05:31:57.482Z,11.10
2022-09-28T05:34:51.974Z,11.00
2022-09-28T05:37:28.219Z,11.00
2022-09-28T05:39:57.496Z,11.00
2022-09-28T05:42:26.650Z,11.10
2022-09-28T05:44:54.907Z,11.10
2022-09-28T05:47:23.097Z,11.10
2022-09-28T05:49:52.632Z,11.10
2022-09-28T05:52:24.380Z,11.10
2022-09-28T05:54:53.740Z,11.00
2022-09-28T05:57:22.936Z,11.00
2022-09-28T05:59:51.001Z,11.00
2022-09-28T06:02:23.953Z,11.00
2022-09-28T06:04:52.154Z,11.00
2022-09-28T06:07:40.928Z,11.00
2022-09-28T06:10:11.121Z,11.00
2022-09-28T06:12:48.775Z,11.04
2022-09-28T06:15:19.033Z,11.00
2022-09-28T06:17:48.607Z,11.00
2022-09-28T06:20:44.165Z,11.00
2022-09-28T06:23:16.522Z,11.00
2022-09-28T06:25:46.256Z,11.00
2022-09-28T06:28:15.440Z,11.00
2022-09-28T06:30:45.278Z,11.00
2022-09-28T06:33:19.055Z,11.00
2022-09-28T06:35:48.050Z,11.00
2022-09-28T06:38:17.551Z,11.00
2022-09-28T06:40:47.048Z,11.00
2022-09-28T06:43:15.610Z,11.00
2022-09-28T06:46:05.051Z,11.10
2022-09-28T06:48:59.380Z,11.24
2022-09-28T06:52:04.042Z,11.30
2022-09-28T06:54:58.989Z,11.40
2022-09-28T06:57:50.440Z,11.40
2022-09-28T07:00:19.534Z,11.40
2022-09-28T07:02:48.560Z,11.40
2022-09-28T07:05:50.244Z,11.44
2022-09-28T07:08:37.143Z,11.50
2022-09-28T07:11:27.301Z,11.50
2022-09-28T07:14:32.629Z,11.50
2022-09-28T07:17:14.463Z,11.50
2022-09-28T07:19:44.954Z,11.60
2022-09-28T07:22:18.724Z,11.70
2022-09-28T07:24:49.599Z,11.80
2022-09-28T07:27:43.893Z,11.80
2022-09-28T07:30:45.777Z,11.90
2022-09-28T07:33:18.917Z,12.10
2022-09-28T07:36:09.417Z,12.20
2022-09-28T07:38:38.389Z,12.20
2022-09-28T07:41:12.280Z,12.20
2022-09-28T07:43:51.473Z,12.20
2022-09-28T07:46:21.601Z,12.30
2022-09-28T07:49:12.392Z,12.40
2022-09-28T07:51:56.547Z,12.40
2022-09-28T07:54:45.451Z,12.40
2022-09-28T07:57:48.893Z,12.34
2022-09-28T08:00:52.331Z,12.40
2022-09-28T08:03:23.662Z,12.30
2022-09-28T08:08:35.774Z,12.30
2022-09-28T08:11:10.384Z,12.20
2022-09-28T08:13:56.203Z,12.30
2022-09-28T08:16:53.341Z,12.40
2022-09-28T08:20:01.357Z,12.50
2022-09-28T08:22:32.457Z,12.50
2022-09-28T08:25:03.124Z,12.50
2022-09-28T08:27:31.622Z,12.50
2022-09-28T08:29:59.678Z,12.50
2022-09-28T08:32:39.788Z,12.60
2022-09-28T08:35:29.391Z,12.70
2022-09-28T08:38:14.043Z,12.70
2022-09-28T08:41:49.703Z,12.70
2022-09-28T08:45:10.509Z,12.70
2022-09-28T08:48:30.860Z,12.80
2022-09-28T08:51:44.633Z,12.80
2022-09-28T08:54:57.977Z,12.90
2022-09-28T08:57:47.787Z,12.98
2022-09-28T09:00:29.770Z,13.00
2022-09-28T09:02:58.073Z,13.06
2022-09-28T09:05:58.547Z,13.10
2022-09-28T09:09:24.138Z,13.20
2022-09-28T09:12:19.578Z,13.20
2022-09-28T09:15:25.702Z,13.30
2022-09-28T09:18:07.102Z,13.30
2022-09-28T09:21:37.556Z,13.40
2022-09-28T09:24:27.963Z,13.36
2022-09-28T09:27:15.346Z,13.40
2022-09-28T09:30:19.444Z,13.40
2022-09-28T09:33:05.701Z,13.50
2022-09-28T09:35:47.702Z,13.56
2022-09-28T09:39:14.131Z,13.64
2022-09-28T09:42:35.538Z,13.60
2022-09-28T09:45:55.059Z,13.74
2022-09-28T09:49:12.007Z,13.80
2022-09-28T09:52:05.294Z,13.84
2022-09-28T09:54:58.436Z,14.00
2022-09-28T09:58:00.205Z,14.00
2022-09-28T10:00:46.793Z,14.00
2022-09-28T10:03:30.590Z,14.00
2022-09-28T10:06:17.988Z,14.06
2022-09-28T10:08:52.870Z,14.10
2022-09-28T10:11:28.970Z,14.20
2022-09-28T10:14:00.072Z,14.40
2022-09-28T10:16:42.743Z,14.50
2022-09-28T10:19:19.709Z,14.60
2022-09-28T10:22:15.269Z,14.60
2022-09-28T10:24:49.860Z,14.60
2022-09-28T10:27:27.224Z,14.70
2022-09-28T10:30:18.610Z,14.70
2022-09-28T10:32:50.258Z,14.80
2022-09-28T10:35:25.354Z,14.80
2022-09-28T10:38:12.256Z,14.80
2022-09-28T10:41:11.076Z,14.70
2022-09-28T10:44:11.929Z,14.62
2022-09-28T10:47:23.263Z,14.60
2022-09-28T10:50:02.452Z,14.70
2022-09-28T10:52:45.510Z,14.80
2022-09-28T10:55:32.811Z,14.90
2022-09-28T10:58:01.331Z,14.92
2022-09-28T11:00:44.710Z,15.00
2022-09-28T11:03:28.815Z,15.00
2022-09-28T11:06:08.729Z,15.00
2022-09-28T11:08:44.662Z,15.02
2022-09-28T11:11:23.137Z,15.10
2022-09-28T11:14:01.683Z,15.10
2022-09-28T11:16:36.767Z,15.20
2022-09-28T11:19:20.882Z,15.30
2022-09-28T11:21:49.818Z,15.38
2022-09-28T11:24:20.357Z,15.48
2022-09-28T11:26:57.322Z,15.42
2022-09-28T11:29:46.154Z,15.50
2022-09-28T11:32:45.725Z,15.60
2022-09-28T11:36:13.032Z,15.60
2022-09-28T11:38:48.395Z,15.60
2022-09-28T11:42:16.260Z,15.52
2022-09-28T11:44:49.691Z,15.40
2022-09-28T11:47:45.640Z,15.30
2022-09-28T11:50:27.794Z,15.16
2022-09-28T11:53:45.271Z,15.02
2022-09-28T11:56:15.781Z,15.00
2022-09-28T11:58:54.739Z,15.00
2022-09-28T12:01:52.304Z,15.00
2022-09-28T12:04:47.028Z,15.00
2022-09-28T12:07:35.901Z,15.10
2022-09-28T12:10:26.288Z,15.20
2022-09-28T12:13:11.731Z,15.30
2022-09-28T12:16:27.596Z,15.40
2022-09-28T12:19:08.604Z,15.50
2022-09-28T12:21:55.332Z,15.60
2022-09-28T12:24:42.424Z,15.70
2022-09-28T12:27:44.187Z,15.90
2022-09-28T12:30:22.248Z,16.20
2022-09-28T12:32:52.342Z,16.30
2022-09-28T12:35:59.981Z,16.40
2022-09-28T12:39:14.653Z,16.82
2022-09-28T12:42:41.330Z,17.10
2022-09-28T12:46:09.927Z,17.30
2022-09-28T12:53:03.128Z,17.60
2022-09-28T12:56:03.886Z,17.50
2022-09-28T12:59:03.780Z,17.46
2022-09-28T13:02:28.522Z,17.58
2022-09-28T13:05:57.175Z,17.88
2022-09-28T13:09:02.538Z,18.10
2022-09-28T13:11:58.162Z,18.30
2022-09-28T13:14:44.899Z,18.48
2022-09-28T13:17:33.757Z,18.50
2022-09-28T13:20:38.320Z,18.60
2022-09-28T13:23:11.901Z,18.80
2022-09-28T13:26:06.908Z,18.94
2022-09-28T13:28:38.496Z,19.10
2022-09-28T13:31:09.122Z,19.26
2022-09-28T13:33:44.852Z,19.48
2022-09-28T13:36:30.768Z,19.50
2022-09-28T13:39:01.122Z,19.70
2022-09-28T13:41:39.010Z,19.90
2022-09-28T13:44:35.737Z,20.00
2022-09-28T13:47:50.181Z,20.20
2022-09-28T13:50:57.606Z,20.30
2022-09-28T13:53:53.736Z,20.30
2022-09-28T13:57:10.201Z,20.40
2022-09-28T14:00:16.880Z,20.52
2022-09-28T14:03:01.640Z,20.50
2022-09-28T14:05:35.583Z,20.30
2022-09-28T14:08:44.589Z,20.16
2022-09-28T14:11:25.191Z,20.10
2022-09-28T14:14:08.119Z,20.00
2022-09-28T14:16:41.037Z,19.60
2022-09-28T14:19:31.504Z,19.30
2022-09-28T14:22:37.701Z,19.10
2022-09-28T14:25:39.327Z,18.70
2022-09-28T14:28:51.500Z,18.50
2022-09-28T14:31:29.423Z,18.20
2022-09-28T14:34:03.475Z,18.10
2022-09-28T14:37:07.684Z,18.10
2022-09-28T14:40:18.523Z,18.00
2022-09-28T14:43:48.497Z,17.88
2022-09-28T14:46:22.102Z,17.60
2022-09-28T14:49:03.049Z,17.50
2022-09-28T14:51:35.835Z,17.30
2022-09-28T14:54:13.477Z,17.20
2022-09-28T14:57:09.205Z,17.10
2022-09-28T14:59:46.218Z,17.00
2022-09-28T15:02:33.406Z,16.84
2022-09-28T15:05:19.562Z,16.80
2022-09-28T15:07:53.854Z,16.66
2022-09-28T15:10:31.857Z,16.60
2022-09-28T15:13:21.720Z,16.60
2022-09-28T15:16:13.779Z,16.50
2022-09-28T15:19:07.564Z,16.40
2022-09-28T15:21:47.818Z,16.34
2022-09-28T15:24:37.176Z,16.30
2022-09-28T15:27:19.932Z,16.20
2022-09-28T15:30:19.865Z,16.10
2022-09-28T15:32:47.973Z,16.00
2022-09-28T15:35:26.976Z,16.00
2022-09-28T15:37:55.855Z,15.90
2022-09-28T15:40:33.713Z,15.90
2022-09-28T15:43:03.890Z,15.80
2022-09-28T15:45:40.074Z,15.70
2022-09-28T15:48:17.223Z,15.60
2022-09-28T15:51:12.632Z,15.50
2022-09-28T15:54:16.450Z,15.40
2022-09-28T15:56:56.139Z,15.30
2022-09-28T15:59:35.717Z,15.30
2022-09-28T16:02:19.147Z,15.14
2022-09-28T16:04:51.893Z,15.10
2022-09-28T16:07:56.232Z,15.00
2022-09-28T16:10:35.990Z,15.00
2022-09-28T16:13:18.993Z,14.92
2022-09-28T16:15:58.231Z,14.90
2022-09-28T16:18:35.773Z,14.90
2022-09-28T16:21:32.134Z,14.80
2022-09-28T16:24:01.166Z,14.80
2022-09-28T16:26:40.574Z,14.70
2022-09-28T16:29:31.106Z,14.60
2022-09-28T16:32:41.829Z,14.50
2022-09-28T16:35:12.965Z,14.40
2022-09-28T16:37:44.954Z,14.40
2022-09-28T16:40:14.341Z,14.30
2022-09-28T16:42:49.151Z,14.20
2022-09-28T16:45:24.109Z,14.20
2022-09-28T16:47:56.722Z,14.10
2022-09-28T16:50:28.911Z,14.10
2022-09-28T16:53:32.545Z,14.10
2022-09-28T16:56:04.239Z,14.00
2022-09-28T16:58:33.364Z,14.00
2022-09-28T17:01:02.133Z,13.90
2022-09-28T17:03:31.437Z,13.90
2022-09-28T17:06:08.594Z,13.90
2022-09-28T17:08:38.269Z,13.90
2022-09-28T17:11:19.284Z,13.90
2022-09-28T17:14:00.409Z,13.90
2022-09-28T17:16:59.927Z,13.90
2022-09-28T17:19:28.993Z,13.90
2022-09-28T17:21:57.400Z,13.90
2022-09-28T17:24:28.350Z,13.80
2022-09-28T17:26:57.554Z,13.80
2022-09-28T17:29:28.336Z,13.80
2022-09-28T17:32:00.610Z,13.80
2022-09-28T17:34:29.779Z,13.80
2022-09-28T17:36:58.294Z,13.74
2022-09-28T17:39:28.399Z,13.74
2022-09-28T17:41:58.557Z,13.70
2022-09-28T17:44:27.552Z,13.70
2022-09-28T17:46:58.165Z,13.70
2022-09-28T17:49:26.909Z,13.70
2022-09-28T17:51:57.535Z,13.70
2022-09-28T17:54:26.766Z,13.60
2022-09-28T17:56:56.081Z,13.60
2022-09-28T17:59:27.609Z,13.60
2022-09-28T18:02:02.549Z,13.60
2022-09-28T18:04:51.207Z,13.60
2022-09-28T18:07:20.505Z,13.60
2022-09-28T18:09:58.454Z,13.54
2022-09-28T18:12:27.120Z,13.50
2022-09-28T18:14:58.103Z,13.48
2022-09-28T18:17:29.285Z,13.40
2022-09-28T18:20:00.487Z,13.40
2022-09-28T18:22:32.069Z,13.30
2022-09-28T18:25:03.940Z,13.30
2022-09-28T18:27:36.599Z,13.30
2022-09-28T18:30:10.883Z,13.20
2022-09-28T18:32:42.576Z,13.10
2022-09-28T18:35:22.041Z,13.10
2022-09-28T18:37:53.087Z,13.10
2022-09-28T18:40:21.869Z,13.00
2022-09-28T18:42:51.965Z,12.90
2022-09-28T18:45:20.664Z,12.80
2022-09-28T18:47:48.949Z,12.78
2022-09-28T18:50:18.612Z,12.70
2022-09-28T18:52:47.541Z,12.60
2022-09-28T18:55:17.430Z,12.60
2022-09-28T18:57:47.933Z,12.50
2022-09-28T19:00:16.704Z,12.50
2022-09-28T19:02:45.759Z,12.40
2022-09-28T19:05:14.535Z,12.20
2022-09-28T19:07:49.613Z,12.20
2022-09-28T19:10:18.756Z,12.10
2022-09-28T19:12:52.652Z,12.10
2022-09-28T19:15:28.502Z,12.00
2022-09-28T19:17:58.347Z,12.00
2022-09-28T19:20:32.116Z,12.00
2022-09-28T19:23:05.034Z,12.00
2022-09-28T19:25:35.661Z,12.00
2022-09-28T19:28:04.341Z,12.00
2022-09-28T19:30:37.805Z,12.00
2022-09-28T19:33:15.669Z,12.00
2022-09-28T19:35:55.609Z,12.00
2022-09-28T19:38:32.588Z,12.00
2022-09-28T19:41:01.568Z,12.00
2022-09-28T19:43:32.189Z,11.90
2022-09-28T19:46:06.570Z,11.90
2022-09-28T19:48:42.431Z,11.90
2022-09-28T19:51:12.247Z,11.90
2022-09-28T19:53:41.646Z,11.90
2022-09-28T19:56:09.660Z,11.90
2022-09-28T19:58:40.576Z,11.90
2022-09-28T20:01:09.739Z,11.80
2022-09-28T20:03:39.766Z,11.80
2022-09-28T20:06:08.417Z,11.80
2022-09-28T20:08:40.218Z,11.76
2022-09-28T20:11:13.048Z,11.72
2022-09-28T20:13:42.382Z,11.80
2022-09-28T20:16:19.088Z,11.70
2022-09-28T20:18:50.770Z,11.70
2022-09-28T20:21:25.950Z,11.70
2022-09-28T20:23:59.506Z,11.70
2022-09-28T20:26:30.130Z,11.70
2022-09-28T20:29:03.722Z,11.70
2022-09-28T20:31:33.456Z,11.70
2022-09-28T20:34:05.546Z,11.70
2022-09-28T20:36:37.250Z,11.70
2022-09-28T20:39:06.249Z,11.60
2022-09-28T20:41:37.329Z,11.60
2022-09-28T20:44:12.179Z,11.60
2022-09-28T20:46:41.566Z,11.50
2022-09-28T20:49:10.896Z,11.42
2022-09-28T20:51:39.558Z,11.34
2022-09-28T20:57:17.369Z,11.20
2022-09-28T20:59:53.650Z,11.14
2022-09-28T21:02:26.401Z,11.10
2022-09-28T21:04:57.206Z,11.08
2022-09-28T21:07:28.997Z,11.00
2022-09-28T21:09:57.999Z,10.98
2022-09-28T21:12:29.799Z,11.00
2022-09-28T21:15:04.893Z,11.00
2022-09-28T21:17:37.252Z,11.00
2022-09-28T21:20:21.203Z,11.00
2022-09-28T21:22:56.342Z,11.00
2022-09-28T21:25:25.987Z,11.00
2022-09-28T21:28:00.378Z,11.02
2022-09-28T21:30:28.818Z,11.00
2022-09-28T21:32:58.254Z,11.00
2022-09-28T21:35:39.478Z,11.00
2022-09-28T21:38:08.796Z,10.90
2022-09-28T21:40:37.050Z,10.90
2022-09-28T21:43:06.517Z,10.80
2022-09-28T21:45:34.903Z,10.80
2022-09-28T21:48:06.890Z,10.80
2022-09-28T21:50:36.872Z,10.80
2022-09-28T21:53:04.940Z,10.70
2022-09-28T21:55:33.483Z,10.70
2022-09-28T21:58:04.561Z,10.72
2022-09-28T22:00:35.460Z,10.72
2022-09-28T22:03:06.415Z,10.70
2022-09-28T22:05:35.179Z,10.70
2022-09-28T22:08:05.755Z,10.62
2022-09-28T22:10:36.843Z,10.60
2022-09-28T22:13:06.038Z,10.60
2022-09-28T22:15:34.321Z,10.50
2022-09-28T22:18:03.899Z,10.46
2022-09-28T22:20:35.358Z,10.40
2022-09-28T22:23:04.008Z,10.40
2022-09-28T22:25:33.164Z,10.40
2022-09-28T22:28:01.826Z,10.40
2022-09-28T22:30:30.163Z,10.40
2022-09-28T22:33:00.786Z,10.40
2022-09-28T22:35:29.314Z,10.32
2022-09-28T22:38:00.055Z,10.30
2022-09-28T22:40:29.733Z,10.30
2022-09-28T22:42:58.242Z,10.30
2022-09-28T22:45:27.346Z,10.30
2022-09-28T22:47:56.569Z,10.30
2022-09-28T22:50:27.061Z,10.30
2022-09-28T22:52:58.011Z,10.30
2022-09-28T22:55:33.612Z,10.30
2022-09-28T22:58:03.497Z,10.36
2022-09-28T23:00:32.844Z,10.32
2022-09-28T23:03:02.354Z,10.30
2022-09-28T23:05:32.041Z,10.30
2022-09-28T23:08:03.588Z,10.30
2022-09-28T23:10:34.098Z,10.26
2022-09-28T23:13:04.221Z,10.20
2022-09-28T23:15:34.443Z,10.24
2022-09-28T23:18:06.184Z,10.30
2022-09-28T23:20:36.645Z,10.30
2022-09-28T23:23:05.914Z,10.30
2022-09-28T23:25:34.783Z,10.30
2022-09-28T23:28:02.840Z,10.30
2022-09-28T23:30:37.582Z,10.30
2022-09-28T23:33:07.248Z,10.30
2022-09-28T23:35:41.931Z,10.28
2022-09-28T23:38:20.918Z,10.24
2022-09-28T23:40:49.415Z,10.20
2022-09-28T23:43:19.220Z,10.20
2022-09-28T23:45:50.138Z,10.28
2022-09-28T23:48:19.225Z,10.30
2022-09-28T23:50:50.141Z,10.28
2022-09-28T23:53:19.005Z,10.22
2022-09-28T23:55:47.379Z,10.20
2022-09-28T23:58:20.430Z,10.20
